Time;durP1;ratioP1;P1;durP2;ratioP2;P2;SDS_P1;SDS_P2;PMS_P1;PMS_P2;Temp;Humidity;BMP_temperature;BMP_pressure;BME280_temperature;BME280_humidity;BME280_pressure;Samples;Min_cycle;Max_cycle;Signal;HPM_P1;HPM_P2
2022/06/13 00:00:27;;;;;;;0.10;0.10;;;13.30;99.90;;;;;;4983145;28;20206;-88
2022/06/13 00:02:53;;;;;;;0.10;0.10;;;13.30;99.90;;;;;;4985358;28;20197;-88
2022/06/13 00:05:19;;;;;;;0.10;0.10;;;13.30;99.90;;;;;;5044026;28;20453;-88
2022/06/13 00:07:45;;;;;;;0.10;0.10;;;13.10;99.90;;;;;;4988187;28;20444;-89
2022/06/13 00:10:12;;;;;;;0.20;0.20;;;13.20;99.90;;;;;;5053162;28;20544;-88
2022/06/13 00:12:39;;;;;;;0.10;0.10;;;13.10;99.90;;;;;;4985273;28;20263;-89
2022/06/13 00:15:06;;;;;;;0.10;0.10;;;13.00;99.90;;;;;;5058626;28;20521;-89
2022/06/13 00:17:31;;;;;;;0.10;0.10;;;13.00;99.90;;;;;;5000551;28;20951;-88
2022/06/13 00:19:57;;;;;;;0.10;0.10;;;13.10;99.90;;;;;;4983260;28;20451;-88
2022/06/13 00:22:22;;;;;;;0.10;0.10;;;13.10;99.90;;;;;;4985400;28;20184;-89
2022/06/13 00:24:48;;;;;;;0.20;0.20;;;13.00;99.90;;;;;;4989067;28;20192;-90
2022/06/13 00:27:15;;;;;;;0.10;0.10;;;13.00;99.90;;;;;;4984972;28;20220;-88
2022/06/13 00:29:41;;;;;;;0.10;0.10;;;13.00;99.90;;;;;;5053314;28;20246;-89
2022/06/13 00:32:07;;;;;;;0.10;0.10;;;13.00;99.90;;;;;;4985913;28;20483;-89
2022/06/13 00:34:33;;;;;;;0.10;0.10;;;12.90;99.90;;;;;;4980939;28;20808;-90
2022/06/13 00:36:58;;;;;;;0.10;0.10;;;12.90;99.90;;;;;;4981068;28;20201;-89
2022/06/13 00:39:24;;;;;;;0.10;0.10;;;12.90;99.90;;;;;;5049008;28;20315;-89
2022/06/13 00:41:50;;;;;;;0.10;0.10;;;12.80;99.90;;;;;;4983377;28;20197;-88
2022/06/13 00:44:33;;;;;;;0.20;0.20;;;12.70;99.90;;;;;;4979592;28;20220;-87
2022/06/13 00:46:59;;;;;;;0.10;0.10;;;12.70;99.90;;;;;;4983298;28;20215;-89
2022/06/13 00:49:30;;;;;;;0.10;0.10;;;12.70;99.90;;;;;;4983099;28;20460;-88
2022/06/13 00:52:26;;;;;;;0.10;0.10;;;12.70;99.90;;;;;;4984364;28;21068;-89
2022/06/13 00:54:53;;;;;;;0.20;0.20;;;12.70;99.90;;;;;;4983141;28;20858;-90
2022/06/13 00:57:23;;;;;;;0.10;0.10;;;12.70;99.90;;;;;;4986086;28;20487;-88
2022/06/13 00:59:53;;;;;;;0.20;0.20;;;12.60;99.90;;;;;;4985369;28;20959;-88
2022/06/13 01:02:18;;;;;;;0.10;0.10;;;12.60;99.90;;;;;;4982671;28;20444;-90
2022/06/13 01:04:46;;;;;;;0.10;0.10;;;12.60;99.90;;;;;;4985971;28;20508;-88
2022/06/13 01:07:12;;;;;;;0.10;0.10;;;12.50;99.90;;;;;;4976633;28;20249;-88
2022/06/13 01:12:25;;;;;;;0.10;0.10;;;12.60;99.90;;;;;;4988606;28;20228;-88
2022/06/13 01:15:05;;;;;;;0.10;0.10;;;12.60;99.90;;;;;;4989359;28;20497;-90
2022/06/13 01:17:50;;;;;;;0.10;0.10;;;12.40;99.90;;;;;;4978199;28;20457;-90
2022/06/13 01:20:49;;;;;;;0.20;0.20;;;12.40;99.90;;;;;;4976588;28;20521;-89
2022/06/13 01:23:21;;;;;;;0.20;0.20;;;12.50;99.90;;;;;;4982396;28;20450;-89
2022/06/13 01:26:11;;;;;;;0.13;0.13;;;12.60;99.90;;;;;;4981221;28;20467;-90
2022/06/13 01:29:05;;;;;;;0.10;0.10;;;12.60;99.90;;;;;;4986508;28;20440;-89
2022/06/13 01:31:56;;;;;;;0.10;0.10;;;12.40;99.90;;;;;;5044554;28;21081;-90
2022/06/13 01:34:43;;;;;;;0.10;0.10;;;12.40;99.90;;;;;;4972684;28;20463;-89
2022/06/13 01:37:30;;;;;;;0.20;0.20;;;12.30;99.90;;;;;;5064922;28;20449;-88
2022/06/13 01:40:29;;;;;;;0.10;0.10;;;12.30;99.90;;;;;;5051703;28;20489;-89
2022/06/13 01:43:27;;;;;;;0.10;0.10;;;12.40;99.90;;;;;;4984279;28;21245;-90
2022/06/13 01:46:04;;;;;;;0.10;0.10;;;12.40;99.90;;;;;;4983026;28;21026;-89
2022/06/13 01:48:54;;;;;;;0.20;0.20;;;12.30;99.90;;;;;;4983917;28;20538;-89
2022/06/13 01:51:28;;;;;;;0.10;0.10;;;12.40;99.90;;;;;;5018534;28;20440;-89
2022/06/13 01:54:24;;;;;;;0.20;0.20;;;12.30;99.90;;;;;;5049571;28;20494;-88
2022/06/13 01:57:01;;;;;;;0.10;0.10;;;12.40;99.90;;;;;;4982014;28;20504;-88
2022/06/13 01:59:33;;;;;;;0.20;0.20;;;12.50;99.90;;;;;;5050590;28;21004;-88
2022/06/13 02:02:09;;;;;;;0.13;0.13;;;12.40;99.90;;;;;;4981946;28;20540;-89
2022/06/13 02:04:44;;;;;;;0.10;0.10;;;12.40;99.90;;;;;;4985558;28;20454;-88
2022/06/13 02:07:22;;;;;;;0.10;0.10;;;12.30;99.90;;;;;;5046231;28;21039;-89
2022/06/13 02:09:53;;;;;;;0.20;0.20;;;12.30;99.90;;;;;;4982514;28;20539;-91
2022/06/13 02:12:20;;;;;;;0.10;0.10;;;12.40;99.90;;;;;;4980220;28;20570;-90
2022/06/13 02:14:51;;;;;;;0.10;0.10;;;12.40;99.90;;;;;;4983366;28;20996;-89
2022/06/13 02:17:19;;;;;;;0.13;0.13;;;12.40;99.90;;;;;;4990282;28;20444;-89
2022/06/13 02:19:54;;;;;;;0.10;0.10;;;12.40;99.90;;;;;;5048732;28;20527;-90
2022/06/13 02:22:30;;;;;;;0.10;0.10;;;12.40;99.90;;;;;;4981527;28;20534;-88
2022/06/13 02:25:19;;;;;;;0.20;0.20;;;12.50;99.90;;;;;;4988159;28;20969;-88
2022/06/13 02:27:55;;;;;;;0.20;0.20;;;12.50;99.90;;;;;;5052418;28;20574;-89
2022/06/13 02:30:25;;;;;;;0.20;0.20;;;12.50;99.90;;;;;;4979434;28;20462;-88
2022/06/13 02:32:55;;;;;;;0.10;0.10;;;12.50;99.90;;;;;;4986108;28;20480;-90
2022/06/13 02:35:32;;;;;;;0.10;0.10;;;12.40;99.90;;;;;;4983944;28;20510;-89
2022/06/13 02:38:06;;;;;;;0.17;0.17;;;12.50;99.90;;;;;;4984089;28;20856;-87
2022/06/13 02:40:44;;;;;;;0.10;0.10;;;12.50;99.90;;;;;;4973269;28;21161;-88
2022/06/13 02:43:22;;;;;;;0.13;0.13;;;12.40;99.90;;;;;;4991621;28;21011;-89
2022/06/13 02:45:59;;;;;;;0.20;0.20;;;12.40;99.90;;;;;;4983797;28;20448;-90
2022/06/13 02:48:36;;;;;;;0.10;0.10;;;12.50;99.90;;;;;;4979682;28;20433;-89
2022/06/13 02:51:24;;;;;;;0.10;0.10;;;12.60;99.90;;;;;;4989419;28;20528;-88
2022/06/13 02:54:13;;;;;;;0.10;0.10;;;12.60;99.90;;;;;;4984312;28;20467;-88
2022/06/13 03:00:11;;;;;;;0.10;0.10;;;12.50;99.90;;;;;;4987446;28;20439;-88
2022/06/13 03:03:00;;;;;;;0.10;0.10;;;12.50;99.90;;;;;;4985298;28;20483;-88
2022/06/13 03:05:54;;;;;;;0.20;0.20;;;12.50;99.90;;;;;;5044081;28;20444;-87
2022/06/13 03:08:47;;;;;;;0.10;0.10;;;12.50;99.90;;;;;;5005807;28;20460;-89
2022/06/13 03:11:29;;;;;;;0.10;0.10;;;12.50;99.90;;;;;;4985960;28;20463;-89
2022/06/13 03:14:16;;;;;;;0.10;0.10;;;12.20;99.90;;;;;;4984168;28;20525;-88
2022/06/13 03:16:51;;;;;;;0.10;0.10;;;12.40;99.90;;;;;;4981612;28;20451;-90
2022/06/13 03:19:31;;;;;;;0.10;0.10;;;12.10;99.90;;;;;;4987531;28;21200;-89
2022/06/13 03:22:06;;;;;;;0.10;0.10;;;12.10;99.90;;;;;;4976004;28;20448;-90
2022/06/13 03:24:58;;;;;;;0.10;0.10;;;12.10;99.90;;;;;;4983827;28;20444;-90
2022/06/13 03:27:32;;;;;;;0.10;0.10;;;11.90;99.90;;;;;;5044100;28;20505;-92
2022/06/13 03:30:07;;;;;;;0.20;0.20;;;11.90;99.90;;;;;;4985901;28;20452;-94
2022/06/13 03:32:38;;;;;;;0.17;0.17;;;11.80;99.90;;;;;;4990258;28;20986;-93
2022/06/13 03:35:11;;;;;;;0.20;0.20;;;11.70;99.90;;;;;;4985506;28;20440;-94
2022/06/13 03:37:43;;;;;;;0.10;0.10;;;11.80;99.90;;;;;;4991709;28;20450;-93
2022/06/13 03:40:16;;;;;;;0.10;0.10;;;11.70;99.90;;;;;;5057127;28;20989;-91
2022/06/13 03:42:58;;;;;;;0.10;0.10;;;11.90;99.90;;;;;;4986735;28;21201;-92
2022/06/13 03:45:55;;;;;;;0.10;0.10;;;11.80;99.90;;;;;;5057872;28;20460;-94
2022/06/13 03:48:28;;;;;;;0.10;0.10;;;11.90;99.90;;;;;;4991395;28;20448;-93
2022/06/13 03:51:00;;;;;;;0.10;0.10;;;11.90;99.90;;;;;;4988255;28;20444;-94
2022/06/13 03:53:31;;;;;;;0.20;0.20;;;11.80;99.90;;;;;;4982431;28;20492;-95
2022/06/13 03:56:05;;;;;;;0.10;0.10;;;11.90;99.90;;;;;;4989032;28;20447;-92
2022/06/13 03:58:35;;;;;;;0.10;0.10;;;12.00;99.90;;;;;;4988132;28;20497;-92
2022/06/13 04:01:12;;;;;;;0.17;0.17;;;12.00;99.90;;;;;;4982900;28;20441;-92
2022/06/13 04:03:38;;;;;;;0.10;0.10;;;12.20;99.90;;;;;;5057799;28;20456;-91
2022/06/13 04:06:25;;;;;;;0.20;0.20;;;12.10;99.90;;;;;;5023545;28;20440;-92
2022/06/13 04:08:50;;;;;;;0.13;0.13;;;12.00;99.90;;;;;;4989467;28;20452;-92
2022/06/13 04:11:16;;;;;;;0.10;0.10;;;12.10;99.90;;;;;;4988353;28;20569;-92
2022/06/13 04:14:17;;;;;;;0.10;0.10;;;12.10;99.90;;;;;;4991159;28;20547;-92
2022/06/13 04:17:06;;;;;;;0.10;0.10;;;12.00;99.90;;;;;;4983118;28;20275;-92
2022/06/13 04:19:50;;;;;;;0.10;0.10;;;12.10;99.90;;;;;;4994956;28;20453;-92
2022/06/13 04:22:46;;;;;;;0.20;0.20;;;12.10;99.90;;;;;;4985619;28;20596;-94
2022/06/13 04:25:46;;;;;;;0.10;0.10;;;12.10;99.90;;;;;;4989298;28;20476;-94
2022/06/13 04:28:23;;;;;;;0.10;0.10;;;12.00;99.90;;;;;;5050576;28;20448;-94
2022/06/13 04:30:51;;;;;;;0.10;0.10;;;12.10;99.90;;;;;;5056344;28;20527;-93
2022/06/13 04:33:33;;;;;;;0.20;0.20;;;12.20;99.90;;;;;;5031358;28;20529;-94
2022/06/13 04:36:00;;;;;;;0.20;0.20;;;12.20;99.90;;;;;;4995116;28;20940;-93
2022/06/13 04:38:27;;;;;;;0.20;0.20;;;12.10;99.90;;;;;;4988693;28;20959;-94
2022/06/13 04:40:57;;;;;;;0.20;0.20;;;12.10;99.90;;;;;;4996465;28;20452;-93
2022/06/13 04:43:27;;;;;;;0.20;0.20;;;12.20;99.90;;;;;;4988935;28;20917;-91
2022/06/13 04:45:58;;;;;;;0.10;0.10;;;12.30;99.90;;;;;;5056879;28;20917;-93
2022/06/13 04:48:24;;;;;;;0.10;0.10;;;12.30;99.90;;;;;;4984954;28;20569;-93
2022/06/13 04:50:57;;;;;;;0.10;0.10;;;12.20;99.90;;;;;;4989846;28;20448;-92
2022/06/13 04:53:28;;;;;;;0.10;0.10;;;12.20;99.90;;;;;;5009731;28;20495;-92
2022/06/13 04:55:54;;;;;;;0.10;0.10;;;12.20;99.90;;;;;;4986942;28;20452;-92
2022/06/13 04:58:29;;;;;;;0.10;0.10;;;12.20;99.90;;;;;;4979055;28;21122;-93
2022/06/13 05:01:05;;;;;;;0.20;0.20;;;12.10;99.90;;;;;;4985322;28;20435;-92
2022/06/13 05:03:42;;;;;;;0.10;0.10;;;12.20;99.90;;;;;;4990229;28;20451;-91
2022/06/13 05:06:29;;;;;;;0.20;0.20;;;12.10;99.90;;;;;;5037849;28;20450;-94
2022/06/13 05:08:59;;;;;;;0.17;0.17;;;12.10;99.90;;;;;;4989300;28;20436;-95
2022/06/13 05:11:28;;;;;;;0.20;0.20;;;12.20;99.90;;;;;;5058382;28;20433;-95
2022/06/13 05:14:07;;;;;;;0.20;0.20;;;12.10;99.90;;;;;;5058859;28;20460;-93
2022/06/13 05:16:35;;;;;;;0.20;0.20;;;12.10;99.90;;;;;;4989389;28;20501;-91
2022/06/13 05:19:09;;;;;;;0.20;0.20;;;12.10;99.90;;;;;;4984719;28;20464;-93
2022/06/13 05:21:41;;;;;;;0.20;0.20;;;12.10;99.90;;;;;;4985666;28;20479;-89
2022/06/13 05:24:25;;;;;;;0.20;0.20;;;12.20;99.90;;;;;;5053188;28;20449;-90
2022/06/13 05:26:50;;;;;;;0.20;0.20;;;12.10;99.90;;;;;;5014136;28;20444;-90
2022/06/13 05:29:16;;;;;;;0.10;0.10;;;12.40;99.90;;;;;;4987269;28;20444;-92
2022/06/13 05:31:43;;;;;;;0.20;0.20;;;12.50;99.90;;;;;;5048184;28;20233;-92
2022/06/13 05:34:21;;;;;;;0.10;0.10;;;12.70;99.90;;;;;;4984652;28;20687;-92
2022/06/13 05:36:47;;;;;;;0.10;0.10;;;12.70;99.90;;;;;;5054915;28;20523;-91
2022/06/13 05:39:12;;;;;;;0.10;0.10;;;12.80;99.90;;;;;;5055980;28;20524;-92
2022/06/13 05:41:38;;;;;;;0.10;0.10;;;12.80;99.90;;;;;;4991063;28;20181;-95
2022/06/13 05:44:05;;;;;;;0.10;0.10;;;13.20;99.90;;;;;;5052089;28;20558;-92
2022/06/13 05:46:33;;;;;;;0.10;0.10;;;13.30;99.90;;;;;;4998741;28;20201;-93
2022/06/13 05:48:59;;;;;;;0.10;0.10;;;13.60;99.90;;;;;;4985269;28;20471;-92
2022/06/13 05:51:25;;;;;;;0.10;0.10;;;13.80;99.90;;;;;;4987577;28;20440;-91
2022/06/13 05:53:51;;;;;;;0.10;0.10;;;13.60;99.90;;;;;;4985694;28;20669;-89
2022/06/13 05:56:18;;;;;;;0.10;0.10;;;13.60;99.90;;;;;;4993219;28;20444;-93
2022/06/13 05:58:43;;;;;;;0.10;0.10;;;13.50;99.90;;;;;;4991341;28;20191;-93
2022/06/13 06:01:13;;;;;;;0.10;0.10;;;13.40;99.90;;;;;;5056157;28;20547;-93
2022/06/13 06:03:38;;;;;;;0.10;0.10;;;13.40;99.90;;;;;;4993747;28;20544;-94
2022/06/13 06:06:04;;;;;;;0.10;0.10;;;13.30;99.90;;;;;;5018604;28;20530;-95
2022/06/13 06:08:34;;;;;;;0.10;0.10;;;13.50;99.90;;;;;;4976357;28;20193;-95
2022/06/13 06:11:00;;;;;;;0.10;0.10;;;13.70;99.90;;;;;;5054987;28;20197;-95
2022/06/13 06:13:29;;;;;;;0.10;0.10;;;13.90;99.90;;;;;;4981998;28;20495;-95
2022/06/13 06:15:57;;;;;;;0.10;0.10;;;14.00;99.90;;;;;;4991638;28;20177;-95
2022/06/13 06:18:24;;;;;;;0.10;0.10;;;14.10;99.90;;;;;;4991195;28;20515;-94
2022/06/13 06:20:50;;;;;;;0.10;0.10;;;14.30;99.90;;;;;;4992973;28;20456;-96
2022/06/13 06:23:16;;;;;;;0.10;0.10;;;14.40;99.90;;;;;;5037993;28;20478;-94
2022/06/13 06:25:43;;;;;;;0.10;0.10;;;14.30;99.90;;;;;;4992583;28;20181;-96
2022/06/13 06:28:16;;;;;;;0.10;0.10;;;14.30;99.90;;;;;;4992604;28;20189;-96
2022/06/13 06:30:41;;;;;;;0.10;0.10;;;14.50;99.90;;;;;;5067700;28;20526;-94
2022/06/13 06:33:07;;;;;;;0.10;0.10;;;14.60;99.90;;;;;;4986434;28;20642;-94
2022/06/13 06:35:34;;;;;;;0.10;0.10;;;14.80;99.90;;;;;;5068087;28;20188;-92
2022/06/13 06:38:00;;;;;;;0.10;0.10;;;14.80;99.90;;;;;;4985105;28;20193;-96
2022/06/13 06:40:27;;;;;;;0.10;0.10;;;14.90;99.90;;;;;;5036563;28;20439;-96
2022/06/13 06:42:53;;;;;;;0.10;0.10;;;15.00;99.90;;;;;;5056816;28;20478;-96
2022/06/13 06:45:19;;;;;;;0.10;0.10;;;15.00;99.90;;;;;;4995694;28;20459;-95
2022/06/13 06:47:45;;;;;;;0.10;0.10;;;15.00;99.90;;;;;;4993905;28;20951;-95
2022/06/13 06:50:16;;;;;;;0.10;0.10;;;15.10;99.90;;;;;;5011583;28;20192;-95
2022/06/13 06:52:42;;;;;;;0.10;0.10;;;15.10;99.90;;;;;;5005687;28;20811;-93
2022/06/13 07:00:46;;;;;;;0.10;0.10;;;15.40;99.90;;;;;;4991571;28;20554;-95
2022/06/13 07:03:13;;;;;;;0.10;0.10;;;15.50;99.90;;;;;;5073706;28;20459;-96
2022/06/13 07:05:38;;;;;;;0.10;0.10;;;15.60;99.90;;;;;;4979192;28;20486;-95
2022/06/13 07:08:04;;;;;;;0.10;0.10;;;15.50;99.90;;;;;;5030620;28;20538;-96
2022/06/13 07:10:30;;;;;;;0.10;0.10;;;15.50;99.90;;;;;;5000475;28;20683;-96
2022/06/13 07:12:55;;;;;;;0.10;0.10;;;15.30;99.90;;;;;;5010931;28;20267;-96
2022/06/13 07:15:21;;;;;;;0.10;0.10;;;15.40;99.90;;;;;;4983836;28;20192;-95
2022/06/13 07:17:46;;;;;;;0.10;0.10;;;15.30;99.90;;;;;;4992866;28;20657;-95
2022/06/13 07:20:12;;;;;;;0.10;0.10;;;15.50;99.90;;;;;;4992343;28;20193;-95
2022/06/13 07:22:45;;;;;;;0.10;0.10;;;15.90;99.90;;;;;;4994115;28;21176;-95
2022/06/13 07:25:19;;;;;;;0.10;0.10;;;16.00;99.90;;;;;;4993706;28;20344;-95
2022/06/13 07:27:44;;;;;;;0.10;0.10;;;15.70;99.90;;;;;;4995605;28;20468;-96
2022/06/13 07:30:12;;;;;;;0.10;0.10;;;15.70;99.90;;;;;;4996100;28;20444;-96
2022/06/13 07:32:39;;;;;;;0.10;0.10;;;15.30;99.90;;;;;;4993231;28;20213;-96
2022/06/13 07:35:05;;;;;;;0.10;0.10;;;15.10;99.90;;;;;;4993694;28;20478;-94
2022/06/13 07:40:15;;;;;;;0.10;0.10;;;15.00;99.90;;;;;;4976422;28;20433;-95
2022/06/13 07:42:54;;;;;;;0.10;0.10;;;15.50;99.90;;;;;;5058713;28;20823;-96
2022/06/13 07:45:23;;;;;;;0.10;0.10;;;16.10;99.90;;;;;;4990075;28;20272;-96
2022/06/13 07:47:49;;;;;;;0.10;0.10;;;16.40;99.90;;;;;;4991681;28;20472;-95
2022/06/13 07:50:16;;;;;;;0.10;0.10;;;16.30;99.90;;;;;;5059701;28;20947;-95
2022/06/13 07:52:42;;;;;;;0.10;0.10;;;16.00;99.90;;;;;;4995650;28;20480;-96
2022/06/13 07:55:08;;;;;;;0.10;0.10;;;15.70;99.90;;;;;;5059671;28;20459;-96
2022/06/13 07:57:34;;;;;;;0.10;0.10;;;15.40;99.90;;;;;;4979033;28;20254;-96
2022/06/13 08:00:00;;;;;;;0.10;0.10;;;15.30;99.90;;;;;;5021688;28;20449;-95
2022/06/13 08:02:29;;;;;;;0.10;0.10;;;15.20;99.90;;;;;;4995251;28;20229;-96
2022/06/13 08:04:55;;;;;;;0.10;0.10;;;15.70;99.90;;;;;;5059952;28;20656;-96
2022/06/13 08:07:21;;;;;;;0.10;0.10;;;16.30;99.90;;;;;;4993488;28;21021;-96
2022/06/13 08:09:47;;;;;;;0.10;0.10;;;16.60;99.90;;;;;;5000699;28;20194;-96
2022/06/13 08:12:16;;;;;;;0.10;0.10;;;16.90;99.90;;;;;;4993479;28;20228;-96
2022/06/13 08:14:45;;;;;;;0.10;0.10;;;16.60;99.90;;;;;;5063407;28;20436;-96
2022/06/13 08:17:12;;;;;;;0.10;0.10;;;16.70;99.90;;;;;;4991438;28;20444;-84
2022/06/13 08:19:38;;;;;;;0.10;0.10;;;16.40;99.90;;;;;;5053344;28;20968;-87
2022/06/13 08:22:04;;;;;;;0.10;0.10;;;16.60;99.90;;;;;;4981165;28;20457;-87
2022/06/13 08:24:29;;;;;;;0.10;0.10;;;16.70;99.90;;;;;;4971319;28;20588;-85
2022/06/13 08:26:55;;;;;;;0.10;0.10;;;17.10;99.90;;;;;;4986116;28;20505;-86
2022/06/13 08:29:20;;;;;;;0.10;0.10;;;17.30;99.90;;;;;;4981343;28;20201;-94
2022/06/13 08:31:46;;;;;;;0.10;0.10;;;17.10;99.90;;;;;;4978020;28;20230;-94
2022/06/13 08:34:11;;;;;;;0.10;0.10;;;16.70;99.90;;;;;;5013663;28;20247;-95
2022/06/13 08:36:37;;;;;;;0.10;0.10;;;15.90;99.90;;;;;;5049834;28;20193;-96
2022/06/13 08:39:03;;;;;;;0.17;0.17;;;15.00;99.90;;;;;;4989893;28;20190;-95
2022/06/13 08:41:55;;;;;;;0.10;0.10;;;14.40;99.90;;;;;;4977365;28;20208;-96
2022/06/13 08:44:29;;;;;;;0.10;0.10;;;13.90;99.90;;;;;;5037845;28;20238;-94
2022/06/13 08:47:21;;;;;;;0.10;0.10;;;13.50;99.90;;;;;;5055547;28;20449;-92
2022/06/13 08:50:10;;;;;;;0.10;0.10;;;12.80;99.90;;;;;;4998126;28;20460;-90
2022/06/13 08:52:55;;;;;;;0.10;0.10;;;12.50;99.90;;;;;;4997241;28;20502;-88
2022/06/13 08:55:42;;;;;;;0.10;0.10;;;12.50;99.90;;;;;;4976816;28;20439;-89
2022/06/13 08:58:26;;;;;;;0.10;0.10;;;12.50;99.90;;;;;;5067880;28;20987;-89
2022/06/13 09:01:16;;;;;;;0.10;0.10;;;12.50;99.90;;;;;;5056746;28;20492;-90
2022/06/13 09:03:53;;;;;;;0.10;0.10;;;12.70;99.90;;;;;;5067093;28;20432;-93
2022/06/13 09:06:25;;;;;;;0.10;0.10;;;12.90;99.90;;;;;;5070676;28;20447;-91
2022/06/13 09:09:02;;;;;;;0.10;0.10;;;12.90;99.90;;;;;;5069874;28;20436;-92
2022/06/13 09:11:46;;;;;;;0.10;0.10;;;12.90;99.90;;;;;;5073941;28;20440;-91
2022/06/13 09:14:17;;;;;;;0.10;0.10;;;13.30;99.90;;;;;;5067924;28;20860;-92
2022/06/13 09:17:03;;;;;;;0.10;0.10;;;14.00;99.90;;;;;;5068647;28;20541;-94
2022/06/13 09:19:33;;;;;;;0.10;0.10;;;14.20;99.90;;;;;;5059439;28;20798;-91
2022/06/13 09:22:06;;;;;;;0.10;0.10;;;14.00;99.90;;;;;;5070367;28;20448;-94
2022/06/13 09:25:00;;;;;;;0.10;0.10;;;14.00;99.90;;;;;;5062052;28;20463;-93
2022/06/13 09:27:33;;;;;;;0.10;0.10;;;13.60;99.90;;;;;;5070934;28;20456;-93
2022/06/13 09:30:09;;;;;;;0.10;0.10;;;13.50;99.90;;;;;;5068217;28;20469;-93
2022/06/13 09:33:00;;;;;;;0.10;0.10;;;13.40;99.90;;;;;;5070278;28;21017;-93
2022/06/13 09:35:32;;;;;;;0.10;0.10;;;13.30;99.90;;;;;;5066340;28;20463;-95
2022/06/13 09:38:06;;;;;;;0.10;0.10;;;13.10;99.90;;;;;;5069288;28;20983;-92
2022/06/13 09:40:55;;;;;;;0.10;0.10;;;13.10;99.90;;;;;;5072596;28;20528;-93
2022/06/13 09:43:52;;;;;;;0.10;0.10;;;13.10;99.90;;;;;;5072910;28;20810;-91
2022/06/13 09:46:22;;;;;;;0.10;0.10;;;12.70;99.90;;;;;;5044134;28;20474;-91
2022/06/13 09:49:09;;;;;;;0.10;0.10;;;12.80;99.90;;;;;;5071085;28;20448;-90
2022/06/13 09:51:39;;;;;;;0.10;0.10;;;12.90;99.90;;;;;;5068883;28;20482;-89
2022/06/13 09:54:33;;;;;;;0.10;0.10;;;13.10;99.90;;;;;;5064963;28;20535;-90
2022/06/13 09:57:22;;;;;;;0.10;0.10;;;13.50;99.90;;;;;;5030188;28;21074;-88
2022/06/13 10:00:08;;;;;;;0.10;0.10;;;13.50;99.90;;;;;;4986009;28;20456;-88
2022/06/13 10:03:21;;;;;;;0.10;0.10;;;13.50;99.90;;;;;;4985000;28;20506;-89
2022/06/13 10:05:56;;;;;;;0.10;0.10;;;13.60;99.90;;;;;;5022513;28;20958;-86
2022/06/13 10:08:25;;;;;;;0.10;0.10;;;13.80;99.90;;;;;;4986653;28;20456;-86
2022/06/13 10:10:53;;;;;;;0.10;0.10;;;13.90;99.90;;;;;;5046311;28;20448;-88
2022/06/13 10:13:58;;;;;;;0.10;0.10;;;14.10;99.90;;;;;;4987306;28;20829;-88
2022/06/13 10:16:46;;;;;;;0.10;0.10;;;14.10;99.90;;;;;;4983585;28;20955;-88
2022/06/13 10:19:18;;;;;;;0.10;0.10;;;14.30;99.90;;;;;;4984369;28;20448;-88
2022/06/13 10:21:46;;;;;;;0.10;0.10;;;14.40;99.90;;;;;;4983723;28;20545;-89
2022/06/13 10:24:39;;;;;;;0.10;0.10;;;14.50;99.90;;;;;;4980470;28;20457;-88
2022/06/13 10:27:39;;;;;;;0.10;0.10;;;14.60;99.90;;;;;;4977165;28;20556;-89
2022/06/13 10:30:13;;;;;;;0.10;0.10;;;15.30;99.90;;;;;;4987220;28;20451;-91
2022/06/13 10:33:08;;;;;;;0.10;0.10;;;15.10;99.90;;;;;;4984290;28;20483;-88
2022/06/13 10:35:52;;;;;;;0.10;0.10;;;15.50;99.90;;;;;;5056635;28;20812;-87
2022/06/13 10:38:23;;;;;;;0.10;0.10;;;15.70;99.90;;;;;;4984027;28;20445;-92
2022/06/13 10:40:49;;;;;;;0.10;0.10;;;16.30;99.90;;;;;;5056639;28;20956;-88
2022/06/13 10:43:15;;;;;;;0.10;0.10;;;16.60;99.90;;;;;;4986962;28;20479;-90
2022/06/13 10:45:43;;;;;;;0.00;0.00;;;16.60;99.90;;;;;;4987137;28;20194;-90
2022/06/13 10:48:24;;;;;;;0.10;0.10;;;17.10;99.90;;;;;;5024480;28;20443;-91
2022/06/13 10:50:58;;;;;;;0.07;0.00;;;17.50;99.90;;;;;;5019532;28;20450;-91
2022/06/13 10:53:26;;;;;;;0.10;0.00;;;18.40;99.90;;;;;;4989267;28;20484;-90
2022/06/13 10:55:55;;;;;;;0.10;0.00;;;19.40;99.90;;;;;;4987164;28;21096;-91
2022/06/13 10:58:39;;;;;;;0.10;0.00;;;20.20;99.90;;;;;;4988114;28;20488;-89
2022/06/13 11:01:17;;;;;;;0.07;0.00;;;19.90;99.90;;;;;;4990915;28;20521;-91
2022/06/13 11:04:00;;;;;;;0.10;0.00;;;18.90;99.90;;;;;;4986324;28;20503;-89
2022/06/13 11:06:37;;;;;;;0.10;0.00;;;18.40;99.90;;;;;;4981381;28;20562;-87
2022/06/13 11:09:18;;;;;;;0.10;0.00;;;17.40;99.90;;;;;;5055217;28;20485;-86
2022/06/13 11:11:44;;;;;;;0.10;0.00;;;16.50;99.90;;;;;;4988807;28;20520;-87
2022/06/13 11:14:24;;;;;;;0.10;0.10;;;16.10;99.90;;;;;;4980163;28;20456;-87
2022/06/13 11:22:43;;;;;;;0.10;0.10;;;16.30;99.90;;;;;;4986086;28;20448;-91
2022/06/13 11:25:20;;;;;;;0.10;0.10;;;18.00;99.90;;;;;;4986723;28;20531;-89
2022/06/13 11:28:07;;;;;;;0.10;0.00;;;19.50;99.90;;;;;;4987595;28;20443;-89
2022/06/13 11:30:36;;;;;;;0.10;0.00;;;20.50;99.90;;;;;;4998280;28;20833;-90
2022/06/13 11:33:07;;;;;;;0.10;0.00;;;19.50;99.90;;;;;;4976675;28;20534;-91
2022/06/13 11:35:40;;;;;;;0.10;0.00;;;18.70;99.90;;;;;;4986751;28;20946;-91
2022/06/13 11:38:31;;;;;;;0.10;0.10;;;17.80;99.90;;;;;;4992508;28;20456;-91
2022/06/13 11:41:05;;;;;;;0.10;0.00;;;17.40;99.90;;;;;;4992037;28;20432;-90
2022/06/13 11:43:35;;;;;;;0.10;0.00;;;18.80;99.90;;;;;;4992515;28;20432;-91
2022/06/13 11:46:06;;;;;;;0.10;0.00;;;19.70;99.90;;;;;;4991722;28;20451;-94
2022/06/13 11:48:32;;;;;;;0.10;0.00;;;18.80;99.90;;;;;;5061382;28;20509;-92
2022/06/13 11:51:06;;;;;;;0.10;0.00;;;18.20;99.90;;;;;;4991393;28;20472;-94
2022/06/13 11:53:38;;;;;;;0.10;0.00;;;19.00;99.90;;;;;;4990864;28;20504;-94
2022/06/13 11:56:22;;;;;;;0.10;0.00;;;18.90;99.90;;;;;;4991619;28;20436;-92
2022/06/13 11:58:50;;;;;;;0.10;0.00;;;19.70;99.90;;;;;;4991921;28;20439;-95
2022/06/13 12:01:29;;;;;;;0.10;0.00;;;19.20;99.90;;;;;;4978342;28;20472;-94
2022/06/13 12:04:15;;;;;;;0.10;0.00;;;17.90;99.90;;;;;;4985552;28;20444;-94
2022/06/13 12:06:46;;;;;;;0.10;0.00;;;18.00;99.90;;;;;;4991950;28;20489;-96
2022/06/13 12:09:20;;;;;;;0.07;0.00;;;19.40;99.90;;;;;;4988537;28;20459;-93
2022/06/13 12:12:02;;;;;;;0.00;0.00;;;20.50;99.90;;;;;;4985616;28;20440;-93
2022/06/13 12:14:30;;;;;;;0.07;0.00;;;21.60;99.90;;;;;;4983278;28;20445;-94
2022/06/13 12:17:10;;;;;;;0.10;0.00;;;21.00;99.90;;;;;;4989490;28;20926;-93
2022/06/13 12:19:57;;;;;;;0.10;0.00;;;21.60;99.90;;;;;;5056586;28;20467;-90
2022/06/13 12:22:35;;;;;;;0.10;0.00;;;21.30;99.90;;;;;;5047949;28;20523;-90
2022/06/13 12:25:19;;;;;;;0.10;0.00;;;21.40;99.90;;;;;;5058450;28;20455;-91
2022/06/13 12:28:09;;;;;;;0.10;0.00;;;22.40;99.90;;;;;;4985651;28;20456;-92
2022/06/13 12:31:12;;;;;;;0.10;0.00;;;22.30;99.90;;;;;;4983380;28;20448;-91
2022/06/13 12:33:49;;;;;;;0.10;0.00;;;22.40;99.90;;;;;;4986219;28;20486;-90
2022/06/13 12:36:50;;;;;;;0.10;0.00;;;22.20;99.90;;;;;;4984801;28;20497;-90
2022/06/13 12:39:39;;;;;;;0.10;0.00;;;23.00;99.90;;;;;;4984692;28;20468;-88
2022/06/13 12:42:50;;;;;;;0.10;0.00;;;23.10;99.90;;;;;;4977842;28;20960;-90
2022/06/13 12:45:49;;;;;;;0.00;0.00;;;22.60;99.90;;;;;;5057264;28;21029;-92
2022/06/13 12:48:27;;;;;;;0.07;0.00;;;22.60;99.90;;;;;;5055612;28;20452;-91
2022/06/13 12:51:15;;;;;;;0.00;0.00;;;20.80;99.90;;;;;;5048958;28;20445;-88
2022/06/13 12:53:53;;;;;;;0.10;0.00;;;21.20;99.90;;;;;;5053205;28;20492;-90
2022/06/13 12:56:57;;;;;;;0.10;0.00;;;22.80;99.90;;;;;;4985166;28;20513;-91
2022/06/13 12:59:24;;;;;;;0.00;0.00;;;22.40;99.90;;;;;;5056779;28;20448;-92
2022/06/13 13:01:49;;;;;;;0.07;0.00;;;22.50;99.90;;;;;;4987381;28;20808;-90
2022/06/13 13:04:17;;;;;;;0.07;0.00;;;22.40;99.90;;;;;;4988290;28;20444;-90
2022/06/13 13:07:01;;;;;;;0.10;0.00;;;22.90;99.90;;;;;;5051185;28;20192;-88
2022/06/13 13:09:33;;;;;;;0.07;0.00;;;23.50;99.90;;;;;;4986691;28;20452;-89
2022/06/13 13:12:19;;;;;;;0.10;0.00;;;22.70;99.90;;;;;;4979498;28;20545;-93
2022/06/13 13:15:11;;;;;;;0.10;0.00;;;22.40;99.90;;;;;;4988891;28;20844;-94
2022/06/13 13:17:53;;;;;;;0.10;0.00;;;22.10;99.90;;;;;;4983670;28;20454;-88
2022/06/13 13:20:36;;;;;;;0.10;0.00;;;21.80;99.90;;;;;;4985513;28;20448;-88
2022/06/13 13:23:36;;;;;;;0.10;0.00;;;21.30;99.90;;;;;;4975953;28;20518;-89
2022/06/13 13:26:21;;;;;;;0.10;0.10;;;21.10;99.90;;;;;;5042997;28;20448;-88
2022/06/13 13:29:04;;;;;;;0.10;0.00;;;20.10;99.90;;;;;;4981385;28;20536;-88
2022/06/13 13:32:08;;;;;;;0.10;0.00;;;19.40;99.90;;;;;;4986532;28;20455;-90
2022/06/13 13:34:40;;;;;;;0.10;0.00;;;19.30;99.90;;;;;;4994578;28;22114;-89
2022/06/13 13:37:31;;;;;;;0.10;0.00;;;20.10;99.90;;;;;;5007886;28;21177;-90
2022/06/13 13:40:09;;;;;;;0.10;0.00;;;21.10;99.90;;;;;;5070525;28;20528;-90
2022/06/13 13:42:57;;;;;;;0.10;0.00;;;21.50;99.90;;;;;;4984158;28;20573;-90
2022/06/13 13:45:38;;;;;;;0.10;0.00;;;20.80;99.90;;;;;;4981599;28;20449;-89
2022/06/13 13:48:39;;;;;;;0.10;0.00;;;21.30;99.90;;;;;;5026993;28;20539;-89
2022/06/13 13:51:19;;;;;;;0.10;0.00;;;21.50;99.90;;;;;;4987494;28;20523;-89